createdAt,value
2022-12-25T00:01:17.160Z,97.82
2022-12-25T00:03:49.636Z,94.97
2022-12-25T00:06:16.509Z,66.72
2022-12-25T00:08:43.519Z,82.00
2022-12-25T00:11:17.279Z,89.88
2022-12-25T00:13:47.458Z,87.07
2022-12-25T00:16:24.158Z,86.40
2022-12-25T00:18:58.971Z,89.45
2022-12-25T00:21:25.849Z,93.82
2022-12-25T00:24:04.211Z,91.05
2022-12-25T00:26:33.564Z,96.22
2022-12-25T00:29:00.285Z,91.30
2022-12-25T00:31:27.368Z,95.22
2022-12-25T00:33:58.041Z,92.57
2022-12-25T00:36:24.920Z,95.07
2022-12-25T00:38:57.161Z,94.82
2022-12-25T00:41:24.499Z,96.35
2022-12-25T00:43:56.881Z,95.63
2022-12-25T00:46:23.739Z,94.55
2022-12-25T00:48:50.723Z,94.28
2022-12-25T00:51:17.434Z,91.95
2022-12-25T00:53:44.117Z,90.68
2022-12-25T00:56:10.950Z,92.15
2022-12-25T00:58:37.766Z,91.05
2022-12-25T01:01:04.499Z,91.00
2022-12-25T01:03:34.156Z,96.43
2022-12-25T01:06:06.955Z,96.35
2022-12-25T01:08:37.055Z,98.85
2022-12-25T01:11:09.984Z,99.30
2022-12-25T01:13:37.682Z,96.80
2022-12-25T01:16:09.914Z,99.30
2022-12-25T01:18:37.743Z,94.93
2022-12-25T01:21:14.307Z,95.53
2022-12-25T01:23:41.106Z,96.60
2022-12-25T01:26:10.241Z,93.70
2022-12-25T01:28:37.783Z,99.03
2022-12-25T01:31:09.687Z,87.47
2022-12-25T01:33:36.475Z,93.80
2022-12-25T01:36:03.235Z,95.25
2022-12-25T01:38:29.920Z,93.53
2022-12-25T01:40:56.700Z,91.00
2022-12-25T01:43:29.961Z,95.70
2022-12-25T01:45:59.989Z,95.93
2022-12-25T01:48:36.389Z,94.45
2022-12-25T01:51:15.915Z,88.90
2022-12-25T01:53:42.582Z,90.40
2022-12-25T01:56:14.588Z,86.90
2022-12-25T02:01:21.235Z,81.18
2022-12-25T02:03:48.065Z,81.40
2022-12-25T02:06:14.717Z,83.97
2022-12-25T02:08:41.924Z,71.63
2022-12-25T02:11:09.167Z,80.30
2022-12-25T02:13:35.845Z,86.93
2022-12-25T02:16:13.264Z,86.10
2022-12-25T02:18:48.127Z,83.65
2022-12-25T02:21:35.772Z,87.53
2022-12-25T02:24:17.443Z,81.65
2022-12-25T02:27:05.466Z,78.80
2022-12-25T02:30:13.714Z,84.20
2022-12-25T02:33:00.496Z,81.95
2022-12-25T02:35:31.600Z,78.88
2022-12-25T02:38:06.806Z,83.40
2022-12-25T02:40:39.623Z,75.32
2022-12-25T02:43:11.543Z,79.47
2022-12-25T02:45:48.163Z,84.13
2022-12-25T02:48:17.310Z,74.82
2022-12-25T02:50:47.253Z,81.45
2022-12-25T02:53:14.069Z,87.18
2022-12-25T02:55:43.123Z,62.92
2022-12-25T02:58:15.379Z,83.80
2022-12-25T03:00:47.881Z,85.00
2022-12-25T03:03:16.472Z,81.72
2022-12-25T03:05:46.789Z,86.28
2022-12-25T03:08:19.520Z,81.32
2022-12-25T03:10:52.821Z,83.05
2022-12-25T03:13:26.159Z,81.70
2022-12-25T03:15:53.181Z,70.60
2022-12-25T03:18:23.620Z,65.97
2022-12-25T03:20:51.669Z,82.85
2022-12-25T03:23:25.778Z,87.65
2022-12-25T03:25:52.617Z,64.93
2022-12-25T03:28:19.576Z,87.25
2022-12-25T03:31:12.016Z,89.65
2022-12-25T03:34:09.151Z,86.03
2022-12-25T03:37:00.093Z,81.90
2022-12-25T03:39:45.745Z,86.80
2022-12-25T03:42:16.032Z,85.75
2022-12-25T03:45:10.512Z,86.35
2022-12-25T03:47:46.454Z,84.53
2022-12-25T03:50:24.337Z,87.90
2022-12-25T03:52:54.024Z,86.97
2022-12-25T03:55:23.235Z,87.50
2022-12-25T03:57:50.168Z,87.30
2022-12-25T04:00:17.119Z,84.60
2022-12-25T04:02:44.192Z,90.47
2022-12-25T04:05:11.020Z,91.28
2022-12-25T04:07:37.779Z,78.72
2022-12-25T04:10:04.799Z,84.35
2022-12-25T04:12:31.518Z,81.53
2022-12-25T04:14:58.279Z,82.25
2022-12-25T04:17:25.002Z,70.25
2022-12-25T04:19:51.787Z,68.97
2022-12-25T04:22:18.562Z,77.60
2022-12-25T04:24:49.062Z,71.82
2022-12-25T04:27:16.758Z,70.82
2022-12-25T04:29:43.507Z,64.32
2022-12-25T04:32:11.305Z,67.40
2022-12-25T04:34:37.940Z,67.57
2022-12-25T04:37:04.714Z,67.63
2022-12-25T04:39:33.922Z,69.90
2022-12-25T04:42:00.660Z,67.20
2022-12-25T04:44:27.630Z,69.22
2022-12-25T04:47:01.125Z,68.32
2022-12-25T04:49:30.282Z,67.78
2022-12-25T04:51:57.219Z,68.57
2022-12-25T04:54:23.908Z,70.65
2022-12-25T04:56:53.457Z,71.47
2022-12-25T04:59:21.934Z,70.22
2022-12-25T05:01:48.965Z,68.68
2022-12-25T05:04:17.990Z,69.20
2022-12-25T05:06:48.000Z,69.78
2022-12-25T05:09:14.799Z,75.88
2022-12-25T05:11:41.502Z,74.85
2022-12-25T05:14:10.988Z,74.88
2022-12-25T05:16:37.791Z,72.53
2022-12-25T05:19:07.605Z,74.30
2022-12-25T05:21:34.316Z,75.80
2022-12-25T05:24:01.334Z,78.70
2022-12-25T05:26:28.132Z,85.10
2022-12-25T05:28:55.671Z,86.65
2022-12-25T05:31:22.618Z,84.32
2022-12-25T05:33:56.884Z,80.82
2022-12-25T05:36:27.178Z,84.43
2022-12-25T05:38:54.500Z,84.63
2022-12-25T05:41:21.304Z,88.30
2022-12-25T05:43:53.436Z,91.70
2022-12-25T05:46:20.288Z,84.57
2022-12-25T05:48:47.056Z,86.57
2022-12-25T05:51:14.779Z,78.65
2022-12-25T05:53:43.086Z,78.10
2022-12-25T05:56:10.352Z,80.47
2022-12-25T05:58:38.981Z,83.75
2022-12-25T06:01:12.311Z,82.55
2022-12-25T06:03:39.058Z,81.97
2022-12-25T06:06:06.221Z,85.22
2022-12-25T06:08:33.054Z,82.50
2022-12-25T06:11:02.199Z,86.18
2022-12-25T06:13:29.197Z,83.95
2022-12-25T06:15:55.921Z,85.97
2022-12-25T06:18:22.727Z,85.35
2022-12-25T06:20:49.414Z,82.10
2022-12-25T06:23:16.147Z,83.78
2022-12-25T06:25:42.864Z,86.00
2022-12-25T06:28:09.580Z,84.57
2022-12-25T06:30:36.235Z,83.80
2022-12-25T06:33:02.882Z,84.35
2022-12-25T06:35:29.514Z,78.60
2022-12-25T06:37:56.195Z,84.55
2022-12-25T06:40:22.905Z,82.22
2022-12-25T06:42:49.671Z,79.55
2022-12-25T06:45:18.864Z,79.22
2022-12-25T06:47:45.666Z,80.43
2022-12-25T06:50:12.375Z,80.30
2022-12-25T06:52:39.120Z,80.35
2022-12-25T06:55:06.713Z,76.50
2022-12-25T06:57:33.416Z,80.18
2022-12-25T07:00:00.089Z,79.80
2022-12-25T07:02:28.622Z,78.57
2022-12-25T07:04:55.494Z,73.13
2022-12-25T07:07:22.292Z,69.03
2022-12-25T07:09:48.982Z,69.25
2022-12-25T07:12:23.630Z,73.15
2022-12-25T07:14:52.668Z,71.45
2022-12-25T07:17:20.567Z,71.50
2022-12-25T07:19:49.934Z,76.13
2022-12-25T07:22:17.031Z,75.50
2022-12-25T07:24:44.021Z,72.78
2022-12-25T07:27:10.762Z,75.15
2022-12-25T07:29:37.418Z,74.50
2022-12-25T07:32:04.499Z,67.88
2022-12-25T07:34:31.343Z,74.05
2022-12-25T07:36:58.027Z,74.85
2022-12-25T07:39:24.834Z,74.43
2022-12-25T07:41:51.683Z,74.28
2022-12-25T07:44:18.692Z,72.90
2022-12-25T07:46:46.118Z,67.13
2022-12-25T07:49:13.325Z,75.68
2022-12-25T07:51:40.262Z,74.38
2022-12-25T07:54:06.996Z,73.00
2022-12-25T07:56:33.839Z,74.90
2022-12-25T07:59:00.576Z,78.57
2022-12-25T08:01:29.767Z,79.72
2022-12-25T08:03:59.017Z,78.20
2022-12-25T08:06:31.110Z,78.65
2022-12-25T08:11:35.603Z,71.97
2022-12-25T08:14:09.772Z,74.63
2022-12-25T08:16:36.691Z,77.30
2022-12-25T08:19:03.406Z,74.85
2022-12-25T08:21:32.221Z,75.53
2022-12-25T08:24:00.497Z,77.65
2022-12-25T08:26:27.316Z,76.63
2022-12-25T08:28:54.295Z,75.55
2022-12-25T08:31:28.563Z,76.47
2022-12-25T08:33:58.057Z,68.05
2022-12-25T08:36:25.315Z,71.78
2022-12-25T08:38:57.023Z,61.60
2022-12-25T08:41:27.842Z,63.10
2022-12-25T08:43:59.689Z,62.17
2022-12-25T08:46:27.035Z,62.72
2022-12-25T08:48:53.676Z,62.15
2022-12-25T08:51:27.912Z,63.33
2022-12-25T08:53:59.319Z,61.50
2022-12-25T08:56:27.265Z,62.47
2022-12-25T08:58:58.125Z,60.80
2022-12-25T09:01:28.222Z,65.03
2022-12-25T09:03:58.389Z,66.38
2022-12-25T09:06:25.208Z,69.63
2022-12-25T09:08:51.960Z,64.85
2022-12-25T09:11:20.551Z,65.32
2022-12-25T09:13:47.813Z,67.22
2022-12-25T09:16:17.737Z,67.13
2022-12-25T09:18:44.612Z,70.00
2022-12-25T09:21:14.141Z,70.35
2022-12-25T09:23:41.067Z,74.20
2022-12-25T09:26:11.105Z,77.47
2022-12-25T09:28:37.889Z,57.83
2022-12-25T09:31:06.479Z,71.38
2022-12-25T09:33:34.223Z,74.85
2022-12-25T09:36:04.549Z,69.43
2022-12-25T09:38:31.922Z,73.32
2022-12-25T09:41:00.128Z,69.75
2022-12-25T09:43:31.424Z,69.97
2022-12-25T09:46:00.559Z,70.68
2022-12-25T09:48:30.659Z,66.28
2022-12-25T09:51:05.893Z,66.57
2022-12-25T09:53:39.489Z,69.72
2022-12-25T09:56:21.426Z,70.63
2022-12-25T09:58:48.576Z,63.35
2022-12-25T10:01:41.377Z,69.30
2022-12-25T10:04:40.968Z,66.07
2022-12-25T10:07:08.387Z,62.80
2022-12-25T10:09:50.182Z,60.28
2022-12-25T10:12:38.335Z,51.40
2022-12-25T10:15:15.023Z,60.28
2022-12-25T10:17:41.633Z,54.88
2022-12-25T10:20:21.461Z,55.65
2022-12-25T10:22:53.593Z,51.67
2022-12-25T10:25:23.377Z,55.03
2022-12-25T10:27:55.591Z,55.33
2022-12-25T10:30:24.904Z,53.47
2022-12-25T10:32:53.088Z,53.13
2022-12-25T10:35:22.692Z,52.35
2022-12-25T10:38:19.648Z,52.63
2022-12-25T10:41:17.128Z,45.30
2022-12-25T10:43:57.830Z,53.08
2022-12-25T10:46:29.077Z,53.78
2022-12-25T10:49:00.409Z,51.92
2022-12-25T10:51:35.663Z,51.95
2022-12-25T10:54:28.028Z,46.88
2022-12-25T10:59:28.599Z,52.45
2022-12-25T11:01:57.361Z,54.95
2022-12-25T11:04:28.165Z,55.05
2022-12-25T11:07:01.534Z,59.65
2022-12-25T11:09:28.880Z,54.67
2022-12-25T11:11:55.675Z,56.00
2022-12-25T11:14:25.267Z,46.13
2022-12-25T11:16:53.384Z,57.15
2022-12-25T11:19:24.761Z,54.38
2022-12-25T11:21:57.761Z,51.28
2022-12-25T11:24:30.280Z,56.30
2022-12-25T11:27:04.965Z,50.42
2022-12-25T11:29:45.224Z,51.85
2022-12-25T11:32:22.859Z,50.83
2022-12-25T11:34:52.204Z,50.03
2022-12-25T11:37:31.676Z,50.42
2022-12-25T11:40:02.399Z,52.83
2022-12-25T11:42:38.259Z,50.92
2022-12-25T11:45:20.263Z,54.45
2022-12-25T11:47:50.968Z,51.90
2022-12-25T11:50:27.839Z,52.45
2022-12-25T11:52:55.455Z,51.53
2022-12-25T11:55:37.975Z,53.17
2022-12-25T11:58:21.838Z,53.30
2022-12-25T12:00:52.316Z,52.70
2022-12-25T12:03:37.858Z,50.53
2022-12-25T12:06:27.193Z,41.88
2022-12-25T12:09:01.728Z,49.80
2022-12-25T12:11:41.389Z,49.78
2022-12-25T12:14:55.422Z,52.53
2022-12-25T12:17:22.294Z,51.35
2022-12-25T12:19:49.127Z,50.92
2022-12-25T12:22:21.471Z,53.20
2022-12-25T12:25:14.669Z,53.95
2022-12-25T12:27:45.873Z,53.88
2022-12-25T12:30:42.945Z,50.38
2022-12-25T12:33:20.718Z,52.20
2022-12-25T12:35:48.928Z,51.28
2022-12-25T12:38:19.819Z,51.88
2022-12-25T12:41:00.526Z,48.45
2022-12-25T12:43:27.137Z,49.75
2022-12-25T12:46:02.591Z,42.97
2022-12-25T12:48:30.239Z,44.60
2022-12-25T12:51:12.726Z,39.72
2022-12-25T12:53:41.765Z,40.35
2022-12-25T12:56:19.761Z,48.95
2022-12-25T12:58:50.365Z,48.60
2022-12-25T13:01:44.938Z,51.25
2022-12-25T13:04:34.587Z,51.03
2022-12-25T13:07:23.525Z,47.13
2022-12-25T13:09:59.236Z,47.90
2022-12-25T13:12:26.167Z,49.80
2022-12-25T13:14:55.542Z,44.45
2022-12-25T13:17:24.814Z,47.75
2022-12-25T13:19:56.028Z,45.70
2022-12-25T13:22:35.690Z,47.28
2022-12-25T13:25:06.829Z,47.88
2022-12-25T13:27:34.023Z,43.67
2022-12-25T13:30:11.311Z,46.20
2022-12-25T13:32:37.969Z,46.30
2022-12-25T13:35:06.664Z,47.20
2022-12-25T13:37:33.333Z,47.13
2022-12-25T13:40:03.770Z,43.50
2022-12-25T13:42:33.205Z,44.88
2022-12-25T13:45:18.840Z,45.28
2022-12-25T13:47:53.037Z,46.55
2022-12-25T13:50:28.936Z,45.22
2022-12-25T13:53:01.220Z,45.67
2022-12-25T13:55:29.496Z,45.53
2022-12-25T13:57:59.235Z,40.72
2022-12-25T14:00:32.605Z,44.28
2022-12-25T14:02:59.960Z,44.83
2022-12-25T14:05:41.640Z,43.95
2022-12-25T14:08:23.208Z,39.47
2022-12-25T14:10:52.629Z,47.38
2022-12-25T14:13:27.741Z,45.28
2022-12-25T14:16:08.009Z,46.40
2022-12-25T14:18:34.872Z,47.58
2022-12-25T14:21:05.066Z,46.80
2022-12-25T14:23:50.885Z,47.28
2022-12-25T14:26:20.176Z,49.13
2022-12-25T14:28:57.730Z,49.83
2022-12-25T14:31:24.988Z,46.15
2022-12-25T14:33:52.675Z,49.53
2022-12-25T14:36:22.469Z,46.03
2022-12-25T14:39:00.722Z,50.72
2022-12-25T14:41:39.626Z,50.55
2022-12-25T14:44:36.103Z,50.03
2022-12-25T14:47:17.685Z,47.63
2022-12-25T14:49:46.988Z,51.97
2022-12-25T14:52:24.119Z,47.47
2022-12-25T14:54:59.800Z,50.33
2022-12-25T14:57:37.310Z,49.80
2022-12-25T15:00:40.373Z,46.03
2022-12-25T15:03:25.533Z,48.28
2022-12-25T15:06:06.753Z,46.10
2022-12-25T15:08:34.734Z,47.33
2022-12-25T15:11:03.051Z,47.45
2022-12-25T15:13:31.740Z,44.22
2022-12-25T15:15:58.552Z,46.17
2022-12-25T15:18:30.465Z,46.90
2022-12-25T15:20:57.412Z,41.95
2022-12-25T15:23:24.108Z,46.58
2022-12-25T15:25:53.079Z,48.20
2022-12-25T15:28:20.350Z,49.20
2022-12-25T15:30:47.173Z,47.05
2022-12-25T15:33:15.798Z,46.50
2022-12-25T15:35:42.926Z,45.53
2022-12-25T15:38:09.850Z,46.30
2022-12-25T15:40:36.568Z,47.70
2022-12-25T15:43:11.480Z,49.70
2022-12-25T15:45:49.204Z,49.90
2022-12-25T15:48:18.387Z,51.38
2022-12-25T15:50:45.047Z,52.53
2022-12-25T15:53:14.586Z,52.00
2022-12-25T15:55:42.749Z,51.58
2022-12-25T15:58:12.932Z,51.67
2022-12-25T16:00:39.609Z,50.20
2022-12-25T16:03:06.465Z,49.83
2022-12-25T16:05:45.022Z,49.58
2022-12-25T16:08:14.830Z,50.88
2022-12-25T16:10:41.765Z,48.50
2022-12-25T16:13:08.614Z,48.30
2022-12-25T16:15:35.852Z,49.55
2022-12-25T16:18:02.956Z,47.42
2022-12-25T16:20:30.037Z,50.08
2022-12-25T16:22:56.889Z,48.30
2022-12-25T16:25:23.740Z,50.47
2022-12-25T16:27:50.507Z,48.83
2022-12-25T16:30:18.432Z,48.85
2022-12-25T16:32:49.646Z,48.25
2022-12-25T16:35:16.709Z,50.17
2022-12-25T16:37:45.880Z,49.88
2022-12-25T16:40:12.657Z,48.88
2022-12-25T16:42:39.396Z,49.60
2022-12-25T16:45:07.107Z,50.88
2022-12-25T16:47:33.834Z,47.22
2022-12-25T16:50:00.660Z,50.58
2022-12-25T16:52:27.400Z,48.28
2022-12-25T16:54:57.898Z,49.20
2022-12-25T16:57:25.096Z,49.97
2022-12-25T16:59:51.913Z,49.70
2022-12-25T17:02:21.839Z,48.88
2022-12-25T17:04:51.686Z,48.33
2022-12-25T17:07:18.649Z,48.90
2022-12-25T17:09:50.240Z,46.72
2022-12-25T17:12:19.841Z,48.03
2022-12-25T17:14:48.349Z,50.58
2022-12-25T17:17:15.162Z,50.40
2022-12-25T17:19:41.860Z,49.92
2022-12-25T17:22:08.625Z,48.83
2022-12-25T17:24:36.870Z,48.88
2022-12-25T17:27:04.259Z,47.88
2022-12-25T17:29:31.282Z,48.30
2022-12-25T17:31:58.061Z,48.95
2022-12-25T17:34:24.960Z,43.20
2022-12-25T17:36:53.283Z,47.72
2022-12-25T17:39:20.187Z,47.08
2022-12-25T17:41:49.971Z,44.38
2022-12-25T17:44:17.423Z,48.80
2022-12-25T17:46:44.194Z,47.88
2022-12-25T17:49:15.916Z,48.85
2022-12-25T17:51:42.721Z,50.03
2022-12-25T17:54:09.784Z,49.92
2022-12-25T17:56:37.033Z,50.10
2022-12-25T17:59:13.556Z,48.17
2022-12-25T18:01:40.411Z,48.40
2022-12-25T18:04:07.278Z,47.60
2022-12-25T18:06:35.635Z,48.92
2022-12-25T18:09:03.836Z,48.80
2022-12-25T18:11:30.869Z,49.85
2022-12-25T18:14:04.309Z,45.85
2022-12-25T18:16:34.927Z,40.40
2022-12-25T18:19:02.440Z,46.30
2022-12-25T18:21:30.123Z,49.33
2022-12-25T18:24:06.136Z,46.33
2022-12-25T18:26:33.375Z,46.78
2022-12-25T18:29:00.200Z,50.72
2022-12-25T18:31:28.066Z,46.30
2022-12-25T18:33:57.474Z,52.05
2022-12-25T18:36:28.589Z,38.90
2022-12-25T18:38:58.496Z,53.77
2022-12-25T18:41:28.180Z,53.17
2022-12-25T18:43:55.799Z,55.13
2022-12-25T18:46:24.935Z,53.33
2022-12-25T18:48:53.010Z,53.47
2022-12-25T18:51:23.149Z,52.30
2022-12-25T18:53:52.832Z,52.47
2022-12-25T18:56:22.709Z,52.30
2022-12-25T18:58:49.543Z,52.13
2022-12-25T19:01:25.408Z,49.30
2022-12-25T19:04:04.092Z,51.75
2022-12-25T19:06:32.122Z,50.85
2022-12-25T19:08:58.823Z,49.80
2022-12-25T19:11:25.897Z,51.05
2022-12-25T19:13:52.764Z,50.58
2022-12-25T19:16:19.511Z,50.83
2022-12-25T19:18:46.696Z,50.97
2022-12-25T19:21:13.732Z,51.13
2022-12-25T19:23:40.727Z,48.85
2022-12-25T19:26:08.738Z,50.83
2022-12-25T19:28:36.257Z,49.50
2022-12-25T19:31:05.015Z,49.15
2022-12-25T19:33:32.114Z,45.00
2022-12-25T19:36:08.116Z,46.40
2022-12-25T19:38:35.554Z,46.08
2022-12-25T19:41:13.260Z,49.00
2022-12-25T19:43:44.576Z,45.97
2022-12-25T19:46:17.734Z,45.63
2022-12-25T19:48:44.505Z,46.55
2022-12-25T19:51:20.271Z,40.53
2022-12-25T19:53:47.178Z,43.63
2022-12-25T19:56:14.393Z,42.72
2022-12-25T19:58:41.332Z,39.60
2022-12-25T20:01:12.290Z,37.22
2022-12-25T20:03:45.746Z,37.95
2022-12-25T20:06:31.400Z,34.10
2022-12-25T20:09:24.216Z,33.08
2022-12-25T20:11:51.357Z,33.80
2022-12-25T20:14:20.732Z,33.42
2022-12-25T20:16:49.348Z,33.22
2022-12-25T20:19:16.336Z,34.47
2022-12-25T20:21:43.454Z,33.67
2022-12-25T20:24:10.428Z,31.40
2022-12-25T20:26:39.483Z,32.53
2022-12-25T20:29:06.895Z,30.20
2022-12-25T20:31:36.258Z,32.50
2022-12-25T20:34:12.069Z,30.58
2022-12-25T20:36:39.386Z,29.02
2022-12-25T20:39:08.020Z,30.35
2022-12-25T20:41:34.936Z,31.40
2022-12-25T20:44:01.730Z,30.88
2022-12-25T20:46:29.475Z,30.40
2022-12-25T20:48:56.354Z,30.77
2022-12-25T20:51:25.507Z,33.78
2022-12-25T20:53:53.803Z,30.73
2022-12-25T20:56:22.582Z,32.95
2022-12-25T20:58:56.938Z,34.20
2022-12-25T21:01:24.166Z,35.70
2022-12-25T21:03:54.502Z,33.15
2022-12-25T21:06:22.185Z,28.15
2022-12-25T21:08:49.801Z,34.25
2022-12-25T21:11:16.925Z,33.88
2022-12-25T21:13:46.625Z,33.83
2022-12-25T21:16:19.051Z,32.72
2022-12-25T21:18:49.370Z,34.38
2022-12-25T21:21:18.615Z,33.25
2022-12-25T21:23:45.690Z,25.67
2022-12-25T21:26:24.846Z,27.27
2022-12-25T21:29:00.881Z,40.33
2022-12-25T21:31:29.519Z,42.30
2022-12-25T21:33:58.832Z,48.38
2022-12-25T21:36:29.264Z,50.30
2022-12-25T21:39:08.499Z,35.75
2022-12-25T21:41:37.263Z,40.83
2022-12-25T21:44:04.494Z,50.65
2022-12-25T21:46:32.330Z,42.28
2022-12-25T21:49:02.839Z,52.67
2022-12-25T21:51:32.348Z,38.55
2022-12-25T21:54:00.529Z,55.53
2022-12-25T21:56:31.545Z,53.42
2022-12-25T21:59:04.118Z,54.20
2022-12-25T22:01:31.890Z,41.83
2022-12-25T22:04:04.957Z,52.13
2022-12-25T22:06:32.996Z,57.08
2022-12-25T22:09:02.544Z,58.72
2022-12-25T22:11:29.921Z,46.20
2022-12-25T22:13:57.825Z,54.15
2022-12-25T22:16:28.106Z,58.60
2022-12-25T22:18:55.011Z,60.15
2022-12-25T22:21:24.439Z,46.42
2022-12-25T22:23:54.846Z,56.20
2022-12-25T22:26:21.651Z,57.65
2022-12-25T22:28:51.154Z,58.25
2022-12-25T22:31:18.787Z,55.95
2022-12-25T22:33:46.779Z,56.45
2022-12-25T22:36:13.569Z,51.85
2022-12-25T22:38:42.976Z,49.97
2022-12-25T22:41:10.504Z,44.28
2022-12-25T22:44:15.299Z,53.10
2022-12-25T22:46:26.152Z,53.10
2022-12-25T22:49:00.348Z,50.17
2022-12-25T22:51:27.395Z,51.25
2022-12-25T22:53:57.478Z,42.67
2022-12-25T22:56:28.957Z,51.70
2022-12-25T22:58:57.483Z,54.15
2022-12-25T23:01:24.388Z,51.78
2022-12-25T23:03:55.302Z,52.03
2022-12-25T23:06:22.282Z,51.53
2022-12-25T23:08:49.365Z,49.20
2022-12-25T23:11:16.923Z,46.53
2022-12-25T23:13:43.908Z,51.75
2022-12-25T23:16:16.877Z,50.35
2022-12-25T23:18:44.266Z,51.22
2022-12-25T23:21:16.110Z,51.50
2022-12-25T23:23:43.308Z,45.70
2022-12-25T23:26:11.713Z,50.70
2022-12-25T23:28:41.831Z,50.42
2022-12-25T23:31:08.941Z,44.10
2022-12-25T23:33:35.845Z,52.10
2022-12-25T23:36:02.762Z,49.58
2022-12-25T23:38:31.113Z,49.75
2022-12-25T23:40:58.303Z,51.67
2022-12-25T23:43:27.667Z,51.22
2022-12-25T23:45:54.576Z,50.55
2022-12-25T23:48:22.456Z,48.80
2022-12-25T23:50:49.065Z,51.33
2022-12-25T23:53:16.180Z,51.05
2022-12-25T23:55:43.576Z,47.22
2022-12-25T23:58:10.900Z,51.10
